sensor_id;sensor_type;location;lat;lon;timestamp;pressure;altitude;pressure_sealevel;temperature;humidity
42601;BME280;28229;48.856;9.088;2022-09-19T00:00:37;97975.13;;;8.16;92.96
42601;BME280;28229;48.856;9.088;2022-09-19T00:03:02;97977.16;;;8.00;93.36
42601;BME280;28229;48.856;9.088;2022-09-19T00:05:29;97987.63;;;8.00;94.62
42601;BME280;28229;48.856;9.088;2022-09-19T00:07:54;97987.63;;;8.00;94.84
42601;BME280;28229;48.856;9.088;2022-09-19T00:10:20;97987.59;;;7.87;95.93
42601;BME280;28229;48.856;9.088;2022-09-19T00:12:46;97987.19;;;7.90;95.55
42601;BME280;28229;48.856;9.088;2022-09-19T00:15:12;97981.53;;;7.80;95.33
42601;BME280;28229;48.856;9.088;2022-09-19T00:17:38;97990.41;;;7.79;95.70
42601;BME280;28229;48.856;9.088;2022-09-19T00:20:05;97989.16;;;7.75;94.44
42601;BME280;28229;48.856;9.088;2022-09-19T00:22:31;97997.00;;;7.75;93.66
42601;BME280;28229;48.856;9.088;2022-09-19T00:24:58;97997.22;;;7.80;93.49
42601;BME280;28229;48.856;9.088;2022-09-19T00:27:26;97996.78;;;7.70;93.75
42601;BME280;28229;48.856;9.088;2022-09-19T00:29:53;98005.66;;;7.69;93.91
42601;BME280;28229;48.856;9.088;2022-09-19T00:32:20;98008.44;;;7.60;93.79
42601;BME280;28229;48.856;9.088;2022-09-19T00:34:49;97996.38;;;7.59;94.21
42601;BME280;28229;48.856;9.088;2022-09-19T00:37:17;97996.75;;;7.56;94.02
42601;BME280;28229;48.856;9.088;2022-09-19T00:39:43;97994.13;;;7.50;94.16
42601;BME280;28229;48.856;9.088;2022-09-19T00:42:15;98002.78;;;7.50;92.92
42601;BME280;28229;48.856;9.088;2022-09-19T00:47:13;98006.81;;;7.53;93.04
42601;BME280;28229;48.856;9.088;2022-09-19T00:49:46;97999.97;;;7.52;92.14
42601;BME280;28229;48.856;9.088;2022-09-19T00:52:42;98011.19;;;7.39;92.36
42601;BME280;28229;48.856;9.088;2022-09-19T00:55:06;98011.41;;;7.44;91.75
42601;BME280;28229;48.856;9.088;2022-09-19T00:57:42;98009.41;;;7.46;92.31
42601;BME280;28229;48.856;9.088;2022-09-19T01:00:12;98010.06;;;7.20;93.35
42601;BME280;28229;48.856;9.088;2022-09-19T01:02:38;98013.75;;;7.26;92.63
42601;BME280;28229;48.856;9.088;2022-09-19T01:05:07;98016.38;;;7.32;92.76
42601;BME280;28229;48.856;9.088;2022-09-19T01:07:44;98015.94;;;7.22;93.26
42601;BME280;28229;48.856;9.088;2022-09-19T01:17:52;98034.66;;;6.91;95.42
42601;BME280;28229;48.856;9.088;2022-09-19T01:20:39;98030.53;;;7.03;94.27
42601;BME280;28229;48.856;9.088;2022-09-19T01:31:44;98026.75;;;7.12;93.41
42601;BME280;28229;48.856;9.088;2022-09-19T01:34:25;98018.19;;;6.97;93.90
42601;BME280;28229;48.856;9.088;2022-09-19T01:36:57;98018.97;;;6.91;94.19
42601;BME280;28229;48.856;9.088;2022-09-19T01:39:30;98030.00;;;6.86;95.10
42601;BME280;28229;48.856;9.088;2022-09-19T01:41:59;98025.84;;;6.92;95.07
42601;BME280;28229;48.856;9.088;2022-09-19T01:44:27;98026.94;;;6.76;95.54
42601;BME280;28229;48.856;9.088;2022-09-19T01:52:48;98034.56;;;6.77;97.61
42601;BME280;28229;48.856;9.088;2022-09-19T01:55:30;98031.75;;;6.79;97.24
42601;BME280;28229;48.856;9.088;2022-09-19T02:03:33;98025.50;;;6.73;98.51
42601;BME280;28229;48.856;9.088;2022-09-19T02:06:09;98030.66;;;6.66;98.60
42601;BME280;28229;48.856;9.088;2022-09-19T02:08:52;98030.88;;;6.65;99.28
42601;BME280;28229;48.856;9.088;2022-09-19T02:11:42;98038.03;;;6.56;99.32
42601;BME280;28229;48.856;9.088;2022-09-19T02:14:13;98040.47;;;6.58;99.55
42601;BME280;28229;48.856;9.088;2022-09-19T02:17:03;98040.47;;;6.58;98.56
42601;BME280;28229;48.856;9.088;2022-09-19T02:19:33;98039.78;;;6.77;97.25
42601;BME280;28229;48.856;9.088;2022-09-19T02:22:15;98034.59;;;6.56;98.39
42601;BME280;28229;48.856;9.088;2022-09-19T02:24:47;98035.69;;;6.68;97.32
42601;BME280;28229;48.856;9.088;2022-09-19T02:27:23;98040.94;;;6.68;96.71
42601;BME280;28229;48.856;9.088;2022-09-19T02:29:53;98036.84;;;6.59;97.11
42601;BME280;28229;48.856;9.088;2022-09-19T02:32:24;98041.13;;;6.66;96.80
42601;BME280;28229;48.856;9.088;2022-09-19T02:34:53;98051.88;;;6.78;95.61
42601;BME280;28229;48.856;9.088;2022-09-19T02:37:26;98053.25;;;6.74;96.65
42601;BME280;28229;48.856;9.088;2022-09-19T02:45:27;98046.16;;;6.68;97.09
42601;BME280;28229;48.856;9.088;2022-09-19T02:51:01;98049.38;;;6.70;95.85
42601;BME280;28229;48.856;9.088;2022-09-19T02:53:39;98049.88;;;6.80;95.31
42601;BME280;28229;48.856;9.088;2022-09-19T02:56:08;98051.38;;;6.68;94.82
42601;BME280;28229;48.856;9.088;2022-09-19T02:58:45;98050.59;;;6.67;95.69
42601;BME280;28229;48.856;9.088;2022-09-19T03:01:17;98052.66;;;6.72;95.08
42601;BME280;28229;48.856;9.088;2022-09-19T03:03:50;98052.25;;;6.75;94.60
42601;BME280;28229;48.856;9.088;2022-09-19T03:09:11;98055.94;;;6.81;92.85
42601;BME280;28229;48.856;9.088;2022-09-19T03:11:42;98061.09;;;6.74;93.33
42601;BME280;28229;48.856;9.088;2022-09-19T03:14:13;98071.19;;;6.56;95.49
42601;BME280;28229;48.856;9.088;2022-09-19T03:16:41;98066.22;;;6.61;94.94
42601;BME280;28229;48.856;9.088;2022-09-19T03:19:11;98075.97;;;6.74;94.06
42601;BME280;28229;48.856;9.088;2022-09-19T03:21:37;98080.81;;;6.77;94.15
42601;BME280;28229;48.856;9.088;2022-09-19T03:24:05;98079.00;;;6.77;93.82
42601;BME280;28229;48.856;9.088;2022-09-19T03:26:34;98080.09;;;6.90;93.14
42601;BME280;28229;48.856;9.088;2022-09-19T03:29:04;98086.84;;;6.77;93.80
42601;BME280;28229;48.856;9.088;2022-09-19T03:31:46;98084.44;;;6.76;93.99
42601;BME280;28229;48.856;9.088;2022-09-19T03:34:16;98085.25;;;6.76;94.04
42601;BME280;28229;48.856;9.088;2022-09-19T03:36:43;98080.09;;;6.90;93.52
42601;BME280;28229;48.856;9.088;2022-09-19T03:39:10;98086.84;;;6.77;94.46
42601;BME280;28229;48.856;9.088;2022-09-19T03:41:41;98084.13;;;6.85;94.50
42601;BME280;28229;48.856;9.088;2022-09-19T03:44:08;98086.19;;;6.90;94.35
42601;BME280;28229;48.856;9.088;2022-09-19T03:46:35;98091.44;;;6.97;94.21
42601;BME280;28229;48.856;9.088;2022-09-19T03:49:02;98086.97;;;6.91;94.63
42601;BME280;28229;48.856;9.088;2022-09-19T03:51:29;98084.97;;;6.93;94.26
42601;BME280;28229;48.856;9.088;2022-09-19T03:53:59;98080.09;;;6.90;95.31
42601;BME280;28229;48.856;9.088;2022-09-19T03:56:30;98087.06;;;7.04;94.17
42601;BME280;28229;48.856;9.088;2022-09-19T03:58:56;98088.69;;;7.05;94.15
42601;BME280;28229;48.856;9.088;2022-09-19T04:01:24;98094.53;;;7.07;94.10
42601;BME280;28229;48.856;9.088;2022-09-19T04:03:53;98093.13;;;7.11;94.16
42601;BME280;28229;48.856;9.088;2022-09-19T04:06:20;98100.97;;;7.04;94.71
42601;BME280;28229;48.856;9.088;2022-09-19T04:08:47;98103.22;;;7.14;94.61
42601;BME280;28229;48.856;9.088;2022-09-19T04:11:14;98100.84;;;7.19;95.03
42601;BME280;28229;48.856;9.088;2022-09-19T04:13:40;98103.72;;;7.24;94.91
42601;BME280;28229;48.856;9.088;2022-09-19T04:16:13;98107.13;;;7.25;94.52
42601;BME280;28229;48.856;9.088;2022-09-19T04:18:40;98104.94;;;7.29;94.25
42601;BME280;28229;48.856;9.088;2022-09-19T04:21:14;98100.47;;;7.22;94.98
42601;BME280;28229;48.856;9.088;2022-09-19T04:23:48;98107.72;;;7.20;95.32
42601;BME280;28229;48.856;9.088;2022-09-19T04:26:34;98106.69;;;7.21;95.75
42601;BME280;28229;48.856;9.088;2022-09-19T04:29:03;98107.75;;;7.27;95.37
42601;BME280;28229;48.856;9.088;2022-09-19T04:31:30;98109.41;;;7.35;95.11
42601;BME280;28229;48.856;9.088;2022-09-19T04:34:07;98111.22;;;7.34;94.73
42601;BME280;28229;48.856;9.088;2022-09-19T04:36:34;98115.41;;;7.29;95.06
42601;BME280;28229;48.856;9.088;2022-09-19T04:39:00;98112.19;;;7.27;95.52
42601;BME280;28229;48.856;9.088;2022-09-19T04:41:33;98112.41;;;7.32;95.04
42601;BME280;28229;48.856;9.088;2022-09-19T04:44:03;98112.50;;;7.45;94.65
42601;BME280;28229;48.856;9.088;2022-09-19T04:46:43;98109.66;;;7.40;95.15
42601;BME280;28229;48.856;9.088;2022-09-19T04:49:10;98114.69;;;7.41;94.60
42601;BME280;28229;48.856;9.088;2022-09-19T04:51:38;98116.72;;;7.46;95.33
42601;BME280;28229;48.856;9.088;2022-09-19T04:54:04;98116.97;;;7.51;94.75
42601;BME280;28229;48.856;9.088;2022-09-19T04:56:30;98118.78;;;7.51;95.08
42601;BME280;28229;48.856;9.088;2022-09-19T04:58:57;98118.38;;;7.54;95.03
42601;BME280;28229;48.856;9.088;2022-09-19T05:01:26;98126.44;;;7.52;94.90
42601;BME280;28229;48.856;9.088;2022-09-19T05:03:52;98123.81;;;7.52;95.19
42601;BME280;28229;48.856;9.088;2022-09-19T05:06:18;98129.72;;;7.68;94.32
42601;BME280;28229;48.856;9.088;2022-09-19T05:08:44;98124.88;;;7.65;94.92
42601;BME280;28229;48.856;9.088;2022-09-19T05:11:25;98130.53;;;7.68;95.21
42601;BME280;28229;48.856;9.088;2022-09-19T05:13:51;98134.97;;;7.68;94.33
42601;BME280;28229;48.856;9.088;2022-09-19T05:16:21;98140.41;;;7.66;95.02
42601;BME280;28229;48.856;9.088;2022-09-19T05:18:54;98139.00;;;7.63;95.01
42601;BME280;28229;48.856;9.088;2022-09-19T05:21:22;98135.78;;;7.68;94.04
42601;BME280;28229;48.856;9.088;2022-09-19T05:23:49;98146.34;;;7.81;93.18
42601;BME280;28229;48.856;9.088;2022-09-19T05:26:15;98136.97;;;7.66;94.34
42601;BME280;28229;48.856;9.088;2022-09-19T05:28:42;98147.44;;;7.66;94.70
42601;BME280;28229;48.856;9.088;2022-09-19T05:31:13;98157.38;;;7.77;93.56
42601;BME280;28229;48.856;9.088;2022-09-19T05:33:46;98151.06;;;7.65;94.31
42601;BME280;28229;48.856;9.088;2022-09-19T05:36:15;98163.16;;;7.66;94.56
42601;BME280;28229;48.856;9.088;2022-09-19T05:39:01;98161.25;;;7.81;97.56
42601;BME280;28229;48.856;9.088;2022-09-19T05:41:48;98166.91;;;7.91;95.52
42601;BME280;28229;48.856;9.088;2022-09-19T05:44:17;98162.81;;;8.17;95.16
42601;BME280;28229;48.856;9.088;2022-09-19T05:46:49;98170.03;;;8.08;92.92
42601;BME280;28229;48.856;9.088;2022-09-19T05:49:18;98175.13;;;8.16;92.48
42601;BME280;28229;48.856;9.088;2022-09-19T05:51:44;98170.69;;;8.17;92.54
42601;BME280;28229;48.856;9.088;2022-09-19T05:54:18;98180.78;;;8.20;92.15
42601;BME280;28229;48.856;9.088;2022-09-19T05:57:16;98185.47;;;8.38;92.90
42601;BME280;28229;48.856;9.088;2022-09-19T05:59:44;98186.28;;;8.38;91.42
42601;BME280;28229;48.856;9.088;2022-09-19T06:02:10;98183.31;;;8.55;90.15
42601;BME280;28229;48.856;9.088;2022-09-19T06:04:59;98189.19;;;8.57;89.16
42601;BME280;28229;48.856;9.088;2022-09-19T06:07:25;98195.47;;;8.69;89.33
42601;BME280;28229;48.856;9.088;2022-09-19T06:09:52;98197.47;;;8.54;88.64
42601;BME280;28229;48.856;9.088;2022-09-19T06:12:20;98190.84;;;8.65;89.40
42601;BME280;28229;48.856;9.088;2022-09-19T06:14:47;98203.13;;;8.64;89.00
42601;BME280;28229;48.856;9.088;2022-09-19T06:17:17;98201.50;;;8.56;88.76
42601;BME280;28229;48.856;9.088;2022-09-19T06:19:55;98206.75;;;8.63;88.41
42601;BME280;28229;48.856;9.088;2022-09-19T06:22:44;98211.63;;;8.66;88.04
42601;BME280;28229;48.856;9.088;2022-09-19T06:25:14;98212.84;;;8.77;87.55
42601;BME280;28229;48.856;9.088;2022-09-19T06:27:40;98211.81;;;8.71;87.94
42601;BME280;28229;48.856;9.088;2022-09-19T06:30:11;98214.00;;;8.68;88.71
42601;BME280;28229;48.856;9.088;2022-09-19T06:32:59;98216.66;;;8.74;88.53
42601;BME280;28229;48.856;9.088;2022-09-19T06:35:41;98223.34;;;8.77;88.22
42601;BME280;28229;48.856;9.088;2022-09-19T06:38:07;98220.91;;;8.75;88.30
42601;BME280;28229;48.856;9.088;2022-09-19T06:40:35;98214.66;;;8.76;88.29
42601;BME280;28229;48.856;9.088;2022-09-19T06:43:12;98222.13;;;8.80;88.53
42601;BME280;28229;48.856;9.088;2022-09-19T06:45:57;98224.97;;;8.85;88.59
42601;BME280;28229;48.856;9.088;2022-09-19T06:48:49;98232.63;;;8.80;89.26
42601;BME280;28229;48.856;9.088;2022-09-19T06:51:44;98230.81;;;8.87;89.00
42601;BME280;28229;48.856;9.088;2022-09-19T06:54:10;98234.31;;;9.07;87.25
42601;BME280;28229;48.856;9.088;2022-09-19T06:56:37;98241.94;;;8.95;87.60
42601;BME280;28229;48.856;9.088;2022-09-19T06:59:06;98239.13;;;9.10;87.34
42601;BME280;28229;48.856;9.088;2022-09-19T07:01:33;98238.31;;;9.03;87.27
42601;BME280;28229;48.856;9.088;2022-09-19T07:03:59;98241.38;;;9.13;86.03
42601;BME280;28229;48.856;9.088;2022-09-19T07:06:40;98247.41;;;9.14;87.19
42601;BME280;28229;48.856;9.088;2022-09-19T07:09:12;98252.06;;;9.19;87.28
42601;BME280;28229;48.856;9.088;2022-09-19T07:11:38;98260.38;;;9.29;86.00
42601;BME280;28229;48.856;9.088;2022-09-19T07:14:07;98253.09;;;9.31;85.13
42601;BME280;28229;48.856;9.088;2022-09-19T07:16:34;98262.19;;;9.35;84.52
42601;BME280;28229;48.856;9.088;2022-09-19T07:19:02;98255.91;;;9.29;85.87
42601;BME280;28229;48.856;9.088;2022-09-19T07:21:42;98256.16;;;9.41;84.56
42601;BME280;28229;48.856;9.088;2022-09-19T07:24:14;98248.66;;;9.45;85.19
42601;BME280;28229;48.856;9.088;2022-09-19T07:27:03;98257.34;;;9.52;83.44
42601;BME280;28229;48.856;9.088;2022-09-19T07:29:30;98267.03;;;9.51;84.51
42601;BME280;28229;48.856;9.088;2022-09-19T07:31:56;98267.03;;;9.58;83.68
42601;BME280;28229;48.856;9.088;2022-09-19T07:34:27;98284.03;;;9.56;83.24
42601;BME280;28229;48.856;9.088;2022-09-19T07:36:53;98272.50;;;9.57;83.59
42601;BME280;28229;48.856;9.088;2022-09-19T07:39:19;98276.75;;;9.58;83.54
42601;BME280;28229;48.856;9.088;2022-09-19T07:42:03;98293.72;;;9.75;82.98
42601;BME280;28229;48.856;9.088;2022-09-19T07:44:48;98293.72;;;9.62;83.85
42601;BME280;28229;48.856;9.088;2022-09-19T07:47:30;98287.03;;;9.72;83.71
42601;BME280;28229;48.856;9.088;2022-09-19T07:50:11;98295.94;;;9.91;82.92
42601;BME280;28229;48.856;9.088;2022-09-19T07:52:41;98292.91;;;9.88;82.85
42601;BME280;28229;48.856;9.088;2022-09-19T07:55:11;98300.16;;;9.93;82.44
42601;BME280;28229;48.856;9.088;2022-09-19T07:57:38;98306.44;;;9.98;81.66
42601;BME280;28229;48.856;9.088;2022-09-19T08:00:05;98303.00;;;9.98;81.66
42601;BME280;28229;48.856;9.088;2022-09-19T08:02:38;98307.44;;;10.04;82.65
42601;BME280;28229;48.856;9.088;2022-09-19T08:05:04;98305.19;;;10.14;81.85
42601;BME280;28229;48.856;9.088;2022-09-19T08:07:33;98307.41;;;10.31;81.73
42601;BME280;28229;48.856;9.088;2022-09-19T08:09:59;98315.91;;;10.33;81.54
42601;BME280;28229;48.856;9.088;2022-09-19T08:12:29;98317.50;;;10.40;81.22
42601;BME280;28229;48.856;9.088;2022-09-19T08:15:04;98323.72;;;10.59;79.75
42601;BME280;28229;48.856;9.088;2022-09-19T08:17:30;98322.06;;;10.72;79.22
42601;BME280;28229;48.856;9.088;2022-09-19T08:19:57;98328.72;;;10.81;78.58
42601;BME280;28229;48.856;9.088;2022-09-19T08:22:22;98326.06;;;10.88;78.82
42601;BME280;28229;48.856;9.088;2022-09-19T08:24:55;98330.09;;;10.90;78.33
42601;BME280;28229;48.856;9.088;2022-09-19T08:27:23;98322.53;;;11.07;76.71
42601;BME280;28229;48.856;9.088;2022-09-19T08:29:49;98334.47;;;11.41;76.63
42601;BME280;28229;48.856;9.088;2022-09-19T08:32:16;98325.81;;;11.66;75.46
42601;BME280;28229;48.856;9.088;2022-09-19T08:34:43;98328.84;;;11.88;74.73
42601;BME280;28229;48.856;9.088;2022-09-19T08:37:09;98329.59;;;12.02;73.30
42601;BME280;28229;48.856;9.088;2022-09-19T08:39:40;98339.22;;;12.15;72.34
42601;BME280;28229;48.856;9.088;2022-09-19T08:42:39;98334.09;;;12.20;72.58
42601;BME280;28229;48.856;9.088;2022-09-19T08:45:22;98341.50;;;12.30;73.26
42601;BME280;28229;48.856;9.088;2022-09-19T08:47:55;98345.13;;;12.35;72.08
42601;BME280;28229;48.856;9.088;2022-09-19T08:50:24;98348.81;;;12.28;71.32
42601;BME280;28229;48.856;9.088;2022-09-19T08:52:55;98348.44;;;12.24;70.65
42601;BME280;28229;48.856;9.088;2022-09-19T08:55:28;98352.72;;;12.25;71.54
42601;BME280;28229;48.856;9.088;2022-09-19T08:58:06;98357.69;;;12.33;71.59
42601;BME280;28229;48.856;9.088;2022-09-19T09:01:00;98362.31;;;12.38;71.58
42601;BME280;28229;48.856;9.088;2022-09-19T09:12:19;98364.84;;;12.26;70.86
42601;BME280;28229;48.856;9.088;2022-09-19T09:15:21;98367.50;;;12.26;69.71
42601;BME280;28229;48.856;9.088;2022-09-19T09:18:22;98369.63;;;12.17;71.22
42601;BME280;28229;48.856;9.088;2022-09-19T09:24:14;98381.41;;;12.15;70.45
42601;BME280;28229;48.856;9.088;2022-09-19T09:26:54;98374.44;;;12.21;70.13
42601;BME280;28229;48.856;9.088;2022-09-19T09:29:24;98363.75;;;12.15;70.56
42601;BME280;28229;48.856;9.088;2022-09-19T09:32:39;98372.31;;;12.11;70.50
42601;BME280;28229;48.856;9.088;2022-09-19T09:37:50;98364.44;;;12.29;69.51
42601;BME280;28229;48.856;9.088;2022-09-19T09:40:46;98371.50;;;12.35;68.99
42601;BME280;28229;48.856;9.088;2022-09-19T09:46:37;98370.13;;;12.51;69.12
42601;BME280;28229;48.856;9.088;2022-09-19T09:49:11;98371.88;;;12.57;68.82
42601;BME280;28229;48.856;9.088;2022-09-19T09:54:27;98368.22;;;12.77;67.44
42601;BME280;28229;48.856;9.088;2022-09-19T09:57:39;98375.38;;;12.88;67.41
42601;BME280;28229;48.856;9.088;2022-09-19T10:00:09;98365.72;;;12.82;67.72
42601;BME280;28229;48.856;9.088;2022-09-19T10:06:02;98371.59;;;13.63;66.52
42601;BME280;28229;48.856;9.088;2022-09-19T10:09:09;98366.38;;;13.87;65.63
42601;BME280;28229;48.856;9.088;2022-09-19T10:11:49;98369.38;;;14.02;64.81
42601;BME280;28229;48.856;9.088;2022-09-19T10:14:21;98368.47;;;14.08;64.40
42601;BME280;28229;48.856;9.088;2022-09-19T10:16:53;98364.56;;;14.23;63.99
42601;BME280;28229;48.856;9.088;2022-09-19T10:19:39;98373.53;;;14.22;63.90
42601;BME280;28229;48.856;9.088;2022-09-19T10:22:15;98365.69;;;14.27;62.77
42601;BME280;28229;48.856;9.088;2022-09-19T10:24:54;98375.16;;;14.23;62.98
42601;BME280;28229;48.856;9.088;2022-09-19T10:32:35;98368.09;;;14.17;62.92
42601;BME280;28229;48.856;9.088;2022-09-19T10:35:25;98362.94;;;14.10;63.06
42601;BME280;28229;48.856;9.088;2022-09-19T10:37:53;98365.00;;;14.20;62.84
42601;BME280;28229;48.856;9.088;2022-09-19T10:40:19;98362.22;;;14.38;62.23
42601;BME280;28229;48.856;9.088;2022-09-19T10:42:46;98363.84;;;14.39;63.03
42601;BME280;28229;48.856;9.088;2022-09-19T10:47:53;98357.03;;;14.79;62.06
42601;BME280;28229;48.856;9.088;2022-09-19T10:50:23;98358.25;;;15.00;61.83
42601;BME280;28229;48.856;9.088;2022-09-19T10:53:00;98359.19;;;15.51;61.12
42601;BME280;28229;48.856;9.088;2022-09-19T10:55:27;98348.94;;;15.72;59.12
42601;BME280;28229;48.856;9.088;2022-09-19T10:57:59;98357.34;;;15.97;57.91
42601;BME280;28229;48.856;9.088;2022-09-19T11:00:44;98356.44;;;16.09;57.70
42601;BME280;28229;48.856;9.088;2022-09-19T11:03:20;98357.25;;;16.09;57.16
42601;BME280;28229;48.856;9.088;2022-09-19T11:06:15;98360.56;;;15.99;55.70
42601;BME280;28229;48.856;9.088;2022-09-19T11:08:55;98367.63;;;15.77;56.46
42601;BME280;28229;48.856;9.088;2022-09-19T11:11:32;98362.69;;;15.69;57.34
42601;BME280;28229;48.856;9.088;2022-09-19T11:14:30;98367.72;;;15.53;56.13
42601;BME280;28229;48.856;9.088;2022-09-19T11:23:02;98370.31;;;15.08;58.27
42601;BME280;28229;48.856;9.088;2022-09-19T11:33:53;98381.94;;;14.66;60.36
42601;BME280;28229;48.856;9.088;2022-09-19T11:39:34;98385.84;;;14.28;63.33
42601;BME280;28229;48.856;9.088;2022-09-19T11:45:17;98371.75;;;13.80;64.89
42601;BME280;28229;48.856;9.088;2022-09-19T11:48:07;98384.50;;;13.71;65.35
42601;BME280;28229;48.856;9.088;2022-09-19T11:51:04;98378.06;;;13.67;66.22
42601;BME280;28229;48.856;9.088;2022-09-19T11:54:12;98373.22;;;13.64;65.23
42601;BME280;28229;48.856;9.088;2022-09-19T11:57:04;98371.72;;;13.68;64.37
42601;BME280;28229;48.856;9.088;2022-09-19T12:11:38;98363.63;;;14.76;62.30
42601;BME280;28229;48.856;9.088;2022-09-19T12:17:13;98340.28;;;15.31;60.93
42601;BME280;28229;48.856;9.088;2022-09-19T12:19:46;98346.97;;;15.50;58.54
42601;BME280;28229;48.856;9.088;2022-09-19T12:22:27;98342.97;;;15.65;58.04
42601;BME280;28229;48.856;9.088;2022-09-19T12:25:21;98345.06;;;15.63;57.80
42601;BME280;28229;48.856;9.088;2022-09-19T12:27:53;98337.16;;;15.34;59.88
42601;BME280;28229;48.856;9.088;2022-09-19T12:30:22;98332.97;;;15.38;59.02
42601;BME280;28229;48.856;9.088;2022-09-19T12:32:58;98331.53;;;15.30;58.97
42601;BME280;28229;48.856;9.088;2022-09-19T12:38:26;98338.91;;;15.28;58.21
42601;BME280;28229;48.856;9.088;2022-09-19T12:41:21;98331.56;;;15.18;58.97
42601;BME280;28229;48.856;9.088;2022-09-19T12:44:51;98335.38;;;15.22;59.08
42601;BME280;28229;48.856;9.088;2022-09-19T12:47:21;98332.81;;;15.28;57.24
42601;BME280;28229;48.856;9.088;2022-09-19T12:50:17;98327.13;;;15.07;57.28
42601;BME280;28229;48.856;9.088;2022-09-19T12:53:03;98330.53;;;15.19;58.27
42601;BME280;28229;48.856;9.088;2022-09-19T12:58:31;98330.13;;;15.56;58.01
42601;BME280;28229;48.856;9.088;2022-09-19T13:01:28;98319.53;;;15.56;56.82
42601;BME280;28229;48.856;9.088;2022-09-19T13:07:00;98315.16;;;15.33;59.06
42601;BME280;28229;48.856;9.088;2022-09-19T13:09:34;98318.38;;;15.52;59.47
42601;BME280;28229;48.856;9.088;2022-09-19T13:12:14;98315.09;;;15.62;57.54
42601;BME280;28229;48.856;9.088;2022-09-19T13:14:54;98321.47;;;15.78;57.09
42601;BME280;28229;48.856;9.088;2022-09-19T13:17:23;98316.34;;;15.88;57.11
42601;BME280;28229;48.856;9.088;2022-09-19T13:20:28;98308.44;;;15.93;56.33
42601;BME280;28229;48.856;9.088;2022-09-19T13:23:16;98316.34;;;15.88;55.61
42601;BME280;28229;48.856;9.088;2022-09-19T13:25:57;98316.34;;;15.88;55.47
42601;BME280;28229;48.856;9.088;2022-09-19T13:28:28;98309.50;;;15.92;56.05
42601;BME280;28229;48.856;9.088;2022-09-19T13:33:46;98303.59;;;16.07;54.19
42601;BME280;28229;48.856;9.088;2022-09-19T13:38:54;98305.91;;;16.60;54.29
42601;BME280;28229;48.856;9.088;2022-09-19T13:41:44;98306.31;;;16.73;54.16
42601;BME280;28229;48.856;9.088;2022-09-19T13:44:25;98302.28;;;17.15;52.69
42601;BME280;28229;48.856;9.088;2022-09-19T13:47:07;98308.50;;;17.26;51.98
42601;BME280;28229;48.856;9.088;2022-09-19T13:49:41;98310.63;;;17.24;51.89
42601;BME280;28229;48.856;9.088;2022-09-19T13:52:24;98304.72;;;17.17;52.29
42601;BME280;28229;48.856;9.088;2022-09-19T13:54:58;98307.53;;;17.37;52.30
42601;BME280;28229;48.856;9.088;2022-09-19T13:57:28;98314.59;;;17.54;51.98
42601;BME280;28229;48.856;9.088;2022-09-19T14:00:01;98312.78;;;17.86;52.74
42601;BME280;28229;48.856;9.088;2022-09-19T14:02:39;98320.41;;;18.15;51.11
42601;BME280;28229;48.856;9.088;2022-09-19T14:05:19;98327.91;;;18.18;51.00
42601;BME280;28229;48.856;9.088;2022-09-19T14:10:24;98343.19;;;16.48;54.50
42601;BME280;28229;48.856;9.088;2022-09-19T14:12:56;98349.25;;;15.58;59.43
42601;BME280;28229;48.856;9.088;2022-09-19T14:20:55;98336.91;;;14.66;67.46
42601;BME280;28229;48.856;9.088;2022-09-19T14:38:18;98335.22;;;13.89;71.82
42601;BME280;28229;48.856;9.088;2022-09-19T14:46:31;98316.56;;;13.84;72.51
42601;BME280;28229;48.856;9.088;2022-09-19T14:49:18;98316.25;;;13.92;71.16
42601;BME280;28229;48.856;9.088;2022-09-19T14:52:02;98322.69;;;13.96;72.88
42601;BME280;28229;48.856;9.088;2022-09-19T14:54:42;98321.06;;;14.19;69.08
42601;BME280;28229;48.856;9.088;2022-09-19T14:57:15;98326.94;;;14.09;70.29
42601;BME280;28229;48.856;9.088;2022-09-19T14:59:41;98332.31;;;14.02;71.57
42601;BME280;28229;48.856;9.088;2022-09-19T15:02:27;98321.16;;;13.88;72.86
42601;BME280;28229;48.856;9.088;2022-09-19T15:05:00;98319.81;;;13.98;72.44
42601;BME280;28229;48.856;9.088;2022-09-19T15:07:29;98321.28;;;13.82;73.32
42601;BME280;28229;48.856;9.088;2022-09-19T15:09:55;98322.44;;;13.86;72.85
42601;BME280;28229;48.856;9.088;2022-09-19T15:12:24;98325.06;;;13.74;73.84
42601;BME280;28229;48.856;9.088;2022-09-19T15:14:54;98317.03;;;13.69;74.56
42601;BME280;28229;48.856;9.088;2022-09-19T15:17:25;98317.94;;;13.86;74.19
42601;BME280;28229;48.856;9.088;2022-09-19T15:19:56;98310.72;;;14.17;75.03
42601;BME280;28229;48.856;9.088;2022-09-19T15:22:26;98314.69;;;14.55;71.49
42601;BME280;28229;48.856;9.088;2022-09-19T15:24:55;98311.69;;;14.75;71.32
42601;BME280;28229;48.856;9.088;2022-09-19T15:27:28;98313.78;;;15.02;70.62
42601;BME280;28229;48.856;9.088;2022-09-19T15:29:54;98303.69;;;15.16;69.57
42601;BME280;28229;48.856;9.088;2022-09-19T15:32:28;98298.41;;;15.33;68.89
42601;BME280;28229;48.856;9.088;2022-09-19T15:35:05;98303.66;;;15.28;67.83
42601;BME280;28229;48.856;9.088;2022-09-19T15:37:35;98305.34;;;15.34;67.01
42601;BME280;28229;48.856;9.088;2022-09-19T15:40:05;98302.00;;;15.38;66.88
42601;BME280;28229;48.856;9.088;2022-09-19T15:42:35;98302.69;;;15.34;67.16
42601;BME280;28229;48.856;9.088;2022-09-19T15:47:58;98310.94;;;14.92;65.99
42601;BME280;28229;48.856;9.088;2022-09-19T15:50:30;98313.75;;;14.73;67.95
42601;BME280;28229;48.856;9.088;2022-09-19T15:52:58;98322.91;;;14.18;72.55
42601;BME280;28229;48.856;9.088;2022-09-19T15:55:26;98338.78;;;14.06;71.50
42601;BME280;28229;48.856;9.088;2022-09-19T15:57:57;98335.09;;;13.84;73.29
42601;BME280;28229;48.856;9.088;2022-09-19T16:00:26;98339.78;;;13.70;74.66
42601;BME280;28229;48.856;9.088;2022-09-19T16:02:55;98342.38;;;13.58;74.73
42601;BME280;28229;48.856;9.088;2022-09-19T16:05:30;98344.09;;;13.41;73.15
42601;BME280;28229;48.856;9.088;2022-09-19T16:07:58;98339.81;;;13.40;73.27
42601;BME280;28229;48.856;9.088;2022-09-19T16:10:45;98337.19;;;13.21;73.48
42601;BME280;28229;48.856;9.088;2022-09-19T16:13:41;98334.03;;;12.82;76.46
42601;BME280;28229;48.856;9.088;2022-09-19T16:16:28;98329.50;;;12.52;78.99